Time;durP1;ratioP1;P1;durP2;ratioP2;P2;SDS_P1;SDS_P2;PMS_P1;PMS_P2;Temp;Humidity;BMP_temperature;BMP_pressure;BME280_temperature;BME280_humidity;BME280_pressure;Samples;Min_cycle;Max_cycle;Signal;HPM_P1;HPM_P2
2023/05/08 00:00:44;;;;;;;18.70;15.65;;;17.90;87.50;;;17.19;72.49;100962.47;5050544;28;20065;-84
2023/05/08 00:03:11;;;;;;;19.92;16.17;;;17.90;87.50;;;17.18;72.58;100964.34;5048724;28;20048;-84
2023/05/08 00:05:40;;;;;;;20.08;15.15;;;17.90;87.60;;;17.16;72.31;100968.31;5050602;28;20130;-84
2023/05/08 00:08:08;;;;;;;21.60;16.20;;;17.90;87.50;;;17.15;72.36;100958.63;5050213;28;20131;-84
2023/05/08 00:10:35;;;;;;;20.55;16.55;;;17.90;87.60;;;17.11;72.31;100969.06;5056038;28;20866;-84
2023/05/08 00:13:04;;;;;;;22.58;17.60;;;17.90;87.60;;;17.09;72.18;100962.28;5049322;28;20051;-84
2023/05/08 00:15:31;;;;;;;21.98;17.35;;;17.80;87.50;;;17.07;72.14;100972.47;5049659;28;20041;-84
2023/05/08 00:17:58;;;;;;;21.65;17.35;;;17.80;87.30;;;17.06;72.24;100968.16;5050575;28;20557;-84
2023/05/08 00:20:26;;;;;;;20.77;16.67;;;17.80;87.30;;;17.03;72.11;100968.63;5050558;28;20052;-84
2023/05/08 00:22:53;;;;;;;21.40;17.70;;;17.80;87.30;;;17.01;71.99;100965.34;5048547;28;20124;-84
2023/05/08 00:25:20;;;;;;;20.88;16.63;;;17.80;87.30;;;16.99;71.96;100966.44;5050297;28;20088;-84
2023/05/08 00:27:47;;;;;;;23.50;16.73;;;17.70;87.30;;;16.97;71.96;100957.75;5049434;28;20116;-84
2023/05/08 00:30:17;;;;;;;24.15;16.40;;;17.70;87.40;;;16.96;72.09;100966.91;5048817;28;20048;-84
2023/05/08 00:32:44;;;;;;;23.45;15.75;;;17.70;87.40;;;16.95;71.87;100967.97;5030473;28;20043;-84
2023/05/08 00:35:11;;;;;;;24.15;17.10;;;17.70;87.40;;;16.92;71.98;100963.03;5048477;28;20730;-84
2023/05/08 00:37:39;;;;;;;19.92;16.83;;;17.60;87.30;;;16.93;72.05;100962.00;5050055;28;20501;-83
2023/05/08 00:40:09;;;;;;;22.58;17.33;;;17.70;87.40;;;16.91;71.75;100969.50;5049508;28;20048;-84
2023/05/08 00:42:36;;;;;;;29.50;19.80;;;17.60;87.40;;;16.89;72.02;100963.53;5048515;28;20037;-84
2023/05/08 00:45:04;;;;;;;24.13;18.90;;;17.60;87.40;;;16.88;72.00;100963.75;5031185;28;20102;-84
2023/05/08 00:47:33;;;;;;;27.10;20.17;;;17.60;87.30;;;16.88;72.08;100964.56;5030891;28;20414;-84
2023/05/08 00:50:01;;;;;;;25.70;19.67;;;17.60;87.50;;;16.85;71.99;100962.38;5045374;28;20140;-83
2023/05/08 00:52:32;;;;;;;25.30;20.20;;;17.60;87.50;;;16.84;71.98;100958.06;5028318;28;20045;-84
2023/05/08 00:55:01;;;;;;;22.23;17.80;;;17.50;87.40;;;16.83;71.86;100967.19;5217945;22;20133;-81
2023/05/08 00:57:30;;;;;;;23.88;18.23;;;17.60;87.40;;;16.82;71.69;100970.13;5083494;28;20048;-82
2023/05/08 00:59:59;;;;;;;25.30;18.13;;;17.50;87.30;;;16.79;71.71;100967.91;5062851;28;20072;-81
2023/05/08 01:02:26;;;;;;;25.52;18.52;;;17.50;87.30;;;16.76;71.75;100958.44;5074665;28;20568;-83
2023/05/08 01:04:56;;;;;;;25.27;18.85;;;17.50;87.30;;;16.74;71.79;100963.25;5067459;28;20045;-81
2023/05/08 01:07:23;;;;;;;27.15;18.95;;;17.50;87.30;;;16.73;71.78;100956.22;5068331;28;20546;-81
2023/05/08 01:09:51;;;;;;;27.33;20.88;;;17.50;87.30;;;16.72;71.83;100968.88;5069331;28;20052;-82
2023/05/08 01:12:26;;;;;;;25.00;21.25;;;17.40;87.30;;;16.71;71.69;100963.69;5063227;28;20056;-81
2023/05/08 01:15:08;;;;;;;27.42;21.63;;;17.40;87.30;;;16.71;71.87;100964.53;5062184;28;20123;-83
2023/05/08 01:17:50;;;;;;;31.63;22.40;;;17.40;87.30;;;16.69;71.75;100971.22;5067871;28;20110;-82
2023/05/08 01:20:38;;;;;;;24.98;19.67;;;17.40;87.30;;;16.66;71.61;100967.09;5065648;28;20534;-83
2023/05/08 01:23:53;;;;;;;26.45;19.95;;;17.40;87.30;;;16.65;71.74;100967.34;5066212;28;20044;-83
2023/05/08 01:27:15;;;;;;;24.67;19.75;;;17.40;87.20;;;16.64;71.62;100976.47;4996727;28;20176;-81
2023/05/08 01:30:16;;;;;;;24.38;19.83;;;17.40;87.20;;;16.62;71.58;100967.81;5020452;28;20128;-83
2023/05/08 01:32:50;;;;;;;;;;;17.30;87.30;;;16.59;71.41;100966.44;5074944;28;20519;-83
2023/05/08 01:35:27;;;;;;;28.25;19.70;;;17.30;87.30;;;16.58;71.46;100963.97;5066059;28;20023;-83
2023/05/08 01:38:03;;;;;;;24.13;18.60;;;17.30;87.20;;;16.56;71.51;100971.47;5068079;28;20123;-83
2023/05/08 01:40:37;;;;;;;26.17;19.35;;;17.30;87.40;;;16.53;71.45;100967.38;5068706;28;20051;-83
2023/05/08 01:43:14;;;;;;;26.00;19.98;;;17.20;87.30;;;16.54;71.54;100978.94;5063097;28;20072;-83
2023/05/08 01:45:46;;;;;;;26.48;19.27;;;17.20;87.30;;;16.50;71.50;100973.25;5067381;28;20457;-82
2023/05/08 01:48:24;;;;;;;27.45;18.25;;;17.20;87.30;;;16.49;71.38;100971.59;5050701;28;20045;-82
2023/05/08 01:51:00;;;;;;;23.38;19.35;;;17.20;87.30;;;16.47;71.27;100969.13;5067449;28;20135;-83
2023/05/08 01:53:34;;;;;;;27.70;19.83;;;17.20;87.30;;;16.46;71.51;100978.28;5082555;28;20049;-82
2023/05/08 01:56:11;;;;;;;28.27;19.80;;;17.20;87.30;;;16.46;71.41;100972.06;5065056;28;20147;-83
2023/05/08 01:58:39;;;;;;;26.15;19.52;;;17.10;87.30;;;16.44;71.37;100974.19;5060037;28;20051;-83
2023/05/08 02:01:07;;;;;;;27.42;19.23;;;17.10;87.20;;;16.43;71.33;100976.06;5059257;28;20094;-81
2023/05/08 02:03:39;;;;;;;25.20;19.70;;;17.10;87.30;;;16.42;71.30;100979.00;5064871;28;20102;-82
2023/05/08 02:06:08;;;;;;;25.88;20.50;;;17.10;87.30;;;16.41;71.42;100980.88;5066220;28;20063;-82
2023/05/08 02:08:37;;;;;;;26.85;21.35;;;17.10;87.30;;;16.39;71.39;100982.97;5066128;28;20464;-82
2023/05/08 02:11:05;;;;;;;26.63;20.92;;;17.10;87.30;;;16.38;71.37;100984.03;5056459;28;20083;-83
2023/05/08 02:13:35;;;;;;;27.85;20.38;;;17.10;87.40;;;16.37;71.33;100989.66;5065742;28;20055;-82
2023/05/08 02:16:03;;;;;;;24.85;20.80;;;17.10;87.30;;;16.37;71.34;100990.47;5056921;28;20119;-82
2023/05/08 02:18:34;;;;;;;26.80;20.45;;;17.00;87.30;;;16.35;71.38;100992.59;5068007;28;20347;-83
2023/05/08 02:21:05;;;;;;;27.75;20.00;;;17.00;87.20;;;16.34;71.34;100995.50;5050508;28;20106;-83
2023/05/08 02:23:34;;;;;;;24.35;19.98;;;17.00;87.20;;;16.34;71.34;100995.50;5065349;28;20040;-83
2023/05/08 02:26:03;;;;;;;23.98;19.30;;;17.00;87.10;;;16.32;71.43;100997.63;5055129;28;20151;-83
2023/05/08 02:28:32;;;;;;;25.75;21.00;;;17.00;87.30;;;16.30;71.39;100992.47;5053589;28;20048;-82
2023/05/08 02:31:01;;;;;;;27.70;20.77;;;17.00;87.30;;;16.28;71.39;100991.88;5066975;28;20120;-82
2023/05/08 02:33:30;;;;;;;28.70;21.20;;;17.00;87.20;;;16.27;71.39;100998.31;5067710;28;20131;-83
2023/05/08 02:35:59;;;;;;;29.80;21.02;;;17.00;87.30;;;16.23;71.69;101000.66;5059075;28;20103;-83
2023/05/08 02:38:31;;;;;;;26.70;21.25;;;17.00;87.30;;;16.24;71.54;100998.78;5057466;28;20064;-83
2023/05/08 02:41:03;;;;;;;27.70;21.17;;;17.00;87.30;;;16.22;71.61;101006.28;5067241;28;20091;-82
2023/05/08 02:43:30;;;;;;;28.75;19.70;;;16.90;87.30;;;16.21;71.41;101004.66;5065245;28;20045;-83
2023/05/08 02:46:09;;;;;;;25.98;20.58;;;16.90;87.30;;;16.20;71.40;101013.75;5066524;28;20127;-83
2023/05/08 02:48:44;;;;;;;26.10;20.42;;;16.90;87.30;;;16.18;71.21;101000.56;5056843;28;20052;-83
2023/05/08 02:51:22;;;;;;;29.10;20.67;;;16.90;87.30;;;16.17;71.34;100998.09;5058119;28;20048;-83
2023/05/08 02:53:58;;;;;;;28.13;20.92;;;16.90;87.40;;;16.16;71.27;101002.66;5061878;28;20153;-83
2023/05/08 02:56:36;;;;;;;24.05;19.50;;;16.90;87.40;;;16.17;71.29;100998.91;5064638;28;20404;-83
2023/05/08 02:59:16;;;;;;;26.55;19.80;;;16.90;87.30;;;16.14;71.23;100994.00;5066625;28;20041;-82
2023/05/08 03:01:50;;;;;;;25.00;20.03;;;16.80;87.30;;;16.13;71.38;100992.38;5060703;28;20041;-83
2023/05/08 03:04:26;;;;;;;24.63;19.15;;;16.80;87.30;;;16.13;71.36;100992.38;5064586;28;20302;-83
2023/05/08 03:06:57;;;;;;;24.20;19.25;;;16.80;87.30;;;16.11;71.39;100988.28;5057250;28;20044;-82
2023/05/08 03:09:35;;;;;;;24.40;19.92;;;16.80;87.40;;;16.10;71.52;100983.94;5066572;28;20071;-83
2023/05/08 03:12:09;;;;;;;24.98;18.98;;;16.80;87.30;;;16.09;71.43;100987.69;5059576;28;20076;-83
2023/05/08 03:14:44;;;;;;;25.52;20.75;;;16.80;87.40;;;16.08;71.50;100989.56;5065666;28;20044;-83
2023/05/08 03:17:16;;;;;;;28.13;20.15;;;16.80;87.60;;;16.07;71.65;100996.00;5057475;28;20048;-82
2023/05/08 03:19:50;;;;;;;24.27;20.15;;;16.80;87.50;;;16.06;71.58;100994.38;5059540;28;20088;-83
2023/05/08 03:22:21;;;;;;;29.20;20.10;;;16.80;87.50;;;16.06;71.69;101001.63;5062913;28;20385;-83
2023/05/08 03:24:51;;;;;;;25.13;19.88;;;16.70;87.50;;;16.06;71.96;100990.88;5069214;28;20578;-83
2023/05/08 03:27:20;;;;;;;24.40;19.55;;;16.80;87.60;;;16.06;71.71;100998.94;5068767;28;20045;-83
2023/05/08 03:29:51;;;;;;;26.15;19.23;;;16.80;87.60;;;16.04;71.80;100995.66;5063652;28;20149;-80
2023/05/08 03:32:19;;;;;;;26.98;19.48;;;16.70;87.70;;;16.03;71.79;100988.63;5068973;28;20051;-83
2023/05/08 03:34:48;;;;;;;24.98;20.13;;;16.70;87.70;;;16.03;71.72;100983.25;5068815;28;20044;-83
2023/05/08 03:37:15;;;;;;;26.67;19.73;;;16.80;87.70;;;16.02;71.78;100982.44;5069534;28;20072;-83
2023/05/08 03:39:43;;;;;;;28.60;20.50;;;16.70;87.70;;;16.01;72.03;100982.69;5068317;28;20045;-80
2023/05/08 03:42:19;;;;;;;26.17;20.05;;;16.70;87.80;;;16.00;71.96;100981.84;5068401;28;20076;-83
2023/05/08 03:44:50;;;;;;;28.67;20.45;;;16.70;87.90;;;15.99;72.14;100972.13;5069425;28;20060;-82
2023/05/08 03:47:18;;;;;;;25.58;18.80;;;16.70;87.90;;;16.00;72.02;100978.31;5069413;28;20048;-82
2023/05/08 03:49:46;;;;;;;24.80;20.60;;;16.70;88.00;;;16.00;72.13;100978.31;5071109;28;20075;-82
2023/05/08 03:52:15;;;;;;;26.50;20.38;;;16.70;87.90;;;15.99;72.15;100982.88;5055246;28;20044;-83
2023/05/08 03:54:43;;;;;;;28.13;19.67;;;16.70;87.90;;;15.98;71.99;100981.25;5066831;28;20412;-83
2023/05/08 03:57:13;;;;;;;26.00;20.70;;;16.70;87.90;;;15.98;72.22;100980.44;5069005;28;20107;-82
2023/05/08 03:59:50;;;;;;;26.48;20.67;;;16.70;87.90;;;15.95;72.06;100982.53;5069409;28;20145;-82
2023/05/08 04:02:28;;;;;;;27.35;21.27;;;16.70;87.90;;;15.95;71.90;100981.72;5068292;28;20125;-83
2023/05/08 04:05:05;;;;;;;26.35;20.30;;;16.70;87.90;;;15.93;71.96;100984.66;5067561;28;20113;-83
2023/05/08 04:07:37;;;;;;;25.67;19.60;;;16.70;87.90;;;15.93;71.95;100978.47;5060922;28;20139;-83
2023/05/08 04:10:13;;;;;;;27.52;20.02;;;16.70;87.90;;;15.92;71.98;100988.41;5067595;28;20048;-83
2023/05/08 04:12:54;;;;;;;23.63;19.08;;;16.60;87.80;;;15.92;71.98;100987.59;5061041;28;20040;-83
2023/05/08 04:15:26;;;;;;;30.02;20.50;;;16.60;87.90;;;15.92;72.02;100984.91;5067339;28;20139;-82
2023/05/08 04:17:59;;;;;;;26.38;19.48;;;16.60;88.00;;;15.91;72.12;100985.94;5065896;28;20672;-83
2023/05/08 04:20:29;;;;;;;26.65;20.02;;;16.60;88.00;;;15.89;72.23;100999.63;5053179;28;20177;-84
2023/05/08 04:22:58;;;;;;;26.95;19.98;;;16.60;88.00;;;15.90;72.22;100995.88;5069257;28;20052;-81
2023/05/08 04:25:26;;;;;;;25.50;20.02;;;16.60;88.10;;;15.88;72.16;100992.59;5063860;28;20080;-81
2023/05/08 04:27:57;;;;;;;26.42;20.35;;;16.60;88.10;;;15.88;72.28;101000.69;5050486;28;20060;-80
2023/05/08 04:30:25;;;;;;;26.40;21.15;;;16.60;88.10;;;15.88;72.31;101003.38;5052603;28;20543;-82
2023/05/08 04:32:54;;;;;;;28.67;21.17;;;16.60;88.20;;;15.89;72.32;100999.63;5067440;28;20500;-81
2023/05/08 04:35:22;;;;;;;27.15;20.63;;;16.60;88.20;;;15.88;72.48;100997.97;5065586;28;20072;-81
2023/05/08 04:37:49;;;;;;;25.77;20.02;;;16.60;88.30;;;15.89;72.61;100996.94;5056473;28;20898;-81
2023/05/08 04:40:17;;;;;;;27.40;20.60;;;16.60;88.30;;;15.89;72.77;101002.31;5068988;28;20036;-81
2023/05/08 04:42:46;;;;;;;28.20;20.60;;;16.60;88.40;;;15.89;72.88;101005.00;5068228;28;20113;-80
2023/05/08 04:45:16;;;;;;;23.83;19.42;;;16.60;88.40;;;15.89;72.90;101005.00;5066686;28;20090;-80
2023/05/08 04:47:44;;;;;;;28.10;21.10;;;16.60;88.50;;;15.89;73.11;101005.00;5070367;28;20090;-80
2023/05/08 04:50:12;;;;;;;25.48;20.77;;;16.60;88.50;;;15.90;73.16;101006.63;5062202;28;20040;-82
2023/05/08 04:52:39;;;;;;;27.92;20.42;;;16.60;88.60;;;15.89;73.17;101010.38;5058843;28;20076;-81
2023/05/08 04:55:09;;;;;;;27.00;19.60;;;16.60;88.70;;;15.90;73.32;101012.00;5062794;28;20585;-82
2023/05/08 04:57:39;;;;;;;26.45;20.60;;;16.70;88.70;;;15.91;73.27;101013.66;5061196;28;20064;-82
2023/05/08 05:00:08;;;;;;;25.58;18.70;;;16.70;88.80;;;15.92;73.53;101014.50;5067665;28;20417;-81
2023/05/08 05:02:40;;;;;;;23.92;18.42;;;16.70;88.90;;;15.91;73.52;101024.44;5067436;28;20064;-81
2023/05/08 05:05:08;;;;;;;24.45;18.95;;;16.70;88.80;;;15.95;73.63;101016.69;5068434;28;20055;-82
2023/05/08 05:07:36;;;;;;;26.27;19.40;;;16.70;88.90;;;15.94;73.80;101023.94;5066653;28;20369;-82
2023/05/08 05:10:04;;;;;;;26.92;20.15;;;16.70;88.90;;;15.94;74.15;101026.63;5059641;28;20149;-82
2023/05/08 05:12:32;;;;;;;25.77;18.95;;;16.70;89.10;;;15.96;74.27;101026.44;5067818;28;20562;-80
2023/05/08 05:15:00;;;;;;;26.00;20.58;;;16.70;89.10;;;15.98;74.68;101034.25;5066858;28;20036;-79
2023/05/08 05:17:32;;;;;;;25.50;20.67;;;16.70;89.20;;;15.99;74.68;101027.81;5065777;28;20047;-78
2023/05/08 05:20:01;;;;;;;29.42;22.30;;;16.80;89.20;;;15.99;74.73;101034.00;5066443;28;20048;-80
2023/05/08 05:22:28;;;;;;;32.25;22.75;;;16.80;89.10;;;16.01;74.91;101034.63;5065252;28;20417;-79
2023/05/08 05:24:56;;;;;;;28.48;21.92;;;16.80;89.10;;;16.03;74.87;101042.44;5065806;28;20155;-79
2023/05/08 05:27:23;;;;;;;27.10;20.33;;;16.80;89.10;;;16.04;75.07;101038.69;5064328;28;20400;-81
2023/05/08 05:29:50;;;;;;;27.40;21.05;;;16.90;89.30;;;16.07;74.94;101038.25;5067267;28;20044;-80
2023/05/08 05:32:18;;;;;;;31.63;22.50;;;16.90;89.40;;;16.10;74.85;101043.94;5062567;28;20044;-82
2023/05/08 05:34:45;;;;;;;29.80;22.52;;;16.90;89.40;;;16.11;75.13;101048.31;5058756;28;20044;-82
2023/05/08 05:37:14;;;;;;;27.25;21.58;;;16.90;89.50;;;16.14;74.91;101044.31;5066512;28;20048;-81
2023/05/08 05:39:41;;;;;;;31.25;22.08;;;16.90;89.50;;;16.15;75.22;101048.63;5065721;28;20670;-80
2023/05/08 05:42:09;;;;;;;29.60;22.80;;;16.90;90.00;;;16.18;74.86;101045.50;5063281;28;20211;-84
2023/05/08 05:44:37;;;;;;;29.95;22.73;;;16.90;89.50;;;16.18;75.02;101042.78;5060275;28;20109;-83
2023/05/08 05:47:08;;;;;;;29.58;22.13;;;17.00;89.40;;;16.20;74.86;101046.06;5060503;28;20497;-83
2023/05/08 05:49:36;;;;;;;27.45;20.95;;;17.00;89.30;;;16.23;74.75;101037.53;5083500;28;20044;-83
2023/05/08 05:52:04;;;;;;;30.58;21.85;;;17.00;89.20;;;16.26;74.83;101044.31;5053263;28;20148;-83
2023/05/08 05:54:33;;;;;;;26.55;21.40;;;17.00;89.60;;;16.28;74.89;101042.22;5063282;28;20044;-84
2023/05/08 05:57:01;;;;;;;29.52;20.98;;;17.00;89.50;;;16.30;74.93;101042.78;5065859;28;20086;-83
2023/05/08 05:59:28;;;;;;;30.17;22.65;;;17.00;89.70;;;16.30;75.14;101042.78;5061726;28;20111;-83
2023/05/08 06:01:56;;;;;;;27.73;21.30;;;17.00;89.60;;;16.31;75.17;101042.56;5061885;28;20047;-83
2023/05/08 06:04:23;;;;;;;32.22;22.73;;;17.10;90.10;;;16.32;75.20;101044.19;5064016;28;20504;-83
2023/05/08 06:06:50;;;;;;;29.58;22.35;;;17.10;89.70;;;16.34;75.38;101050.16;5064560;28;20029;-83
2023/05/08 06:09:18;;;;;;;27.58;20.55;;;17.10;89.70;;;16.36;75.31;101049.94;5061537;28;20067;-84
2023/05/08 06:11:46;;;;;;;27.08;21.40;;;17.10;90.20;;;16.37;75.72;101046.19;5058517;28;20041;-83
2023/05/08 06:14:14;;;;;;;28.63;19.75;;;17.10;90.00;;;16.40;75.75;101048.41;5078497;28;20053;-84
2023/05/08 06:16:41;;;;;;;24.55;19.20;;;17.20;90.20;;;16.41;75.92;101050.88;5062825;28;20121;-83
2023/05/08 06:19:08;;;;;;;27.00;19.17;;;17.20;90.60;;;16.42;75.75;101054.38;5062039;28;20044;-85
2023/05/08 06:21:36;;;;;;;25.33;19.20;;;17.20;90.20;;;16.41;75.90;101048.19;5062352;28;20806;-83
2023/05/08 06:24:05;;;;;;;26.10;20.65;;;17.20;90.40;;;16.43;75.82;101056.81;5068134;28;20048;-83
2023/05/08 06:26:32;;;;;;;28.17;20.70;;;17.20;90.20;;;16.44;75.74;101055.75;5063421;28;20043;-83
2023/05/08 06:29:01;;;;;;;23.88;18.90;;;17.20;90.10;;;16.46;75.60;101055.53;5066188;28;20041;-83
2023/05/08 06:31:28;;;;;;;24.02;18.67;;;17.20;90.30;;;16.47;75.45;101049.09;5065354;28;20458;-83
2023/05/08 06:33:55;;;;;;;29.75;19.23;;;17.20;89.90;;;16.50;75.58;101053.22;5066316;28;20051;-83
2023/05/08 06:36:22;;;;;;;21.27;17.50;;;17.20;90.20;;;16.52;75.43;101056.47;5065885;28;20448;-83
2023/05/08 06:38:50;;;;;;;23.48;18.08;;;17.30;90.00;;;16.55;75.52;101045.25;5067507;28;20044;-83
2023/05/08 06:41:17;;;;;;;22.75;18.33;;;17.30;90.00;;;16.56;75.79;101038.78;5067282;28;20060;-83
2023/05/08 06:43:44;;;;;;;25.40;17.15;;;17.30;90.40;;;16.60;75.35;101038.09;5065983;28;20036;-83
2023/05/08 06:46:13;;;;;;;18.83;13.65;;;17.30;90.00;;;16.64;75.14;101039.25;5064946;28;20116;-84
2023/05/08 06:48:40;;;;;;;14.05;9.95;;;17.40;90.10;;;16.68;75.85;101037.69;5061759;28;20419;-83
2023/05/08 06:51:07;;;;;;;14.55;9.23;;;17.40;90.80;;;16.72;75.46;101038.09;5066263;28;20090;-83
2023/05/08 06:53:34;;;;;;;12.50;9.07;;;17.50;90.40;;;16.77;75.42;101040.88;5065922;28;20556;-83
2023/05/08 06:56:02;;;;;;;14.05;8.73;;;17.50;90.40;;;16.82;75.42;101045.56;5067277;28;20127;-83
2023/05/08 06:58:30;;;;;;;12.88;8.73;;;17.50;90.50;;;16.88;75.50;101049.97;5068514;28;20040;-83
2023/05/08 07:00:59;;;;;;;12.70;8.43;;;17.60;90.40;;;16.95;75.87;101050.69;5065015;28;20052;-83
2023/05/08 07:03:27;;;;;;;11.45;8.25;;;17.70;90.70;;;16.99;75.53;101049.16;5070412;28;20049;-83
2023/05/08 07:05:54;;;;;;;9.45;7.80;;;17.70;90.40;;;17.02;75.08;101051.34;5070216;28;20045;-83
2023/05/08 07:08:22;;;;;;;10.80;7.82;;;17.80;90.10;;;17.07;74.99;101047.94;5069875;28;20045;-83
2023/05/08 07:10:49;;;;;;;24.15;9.50;;;17.80;90.00;;;17.13;74.93;101047.81;5070022;28;20504;-83
2023/05/08 07:13:20;;;;;;;15.20;8.13;;;17.90;90.20;;;17.18;75.13;101055.19;5071583;28;20040;-83
2023/05/08 07:15:48;;;;;;;12.25;8.20;;;17.90;90.00;;;17.21;74.62;101060.06;5069326;28;20047;-83
2023/05/08 07:18:15;;;;;;;11.38;7.95;;;17.90;89.50;;;17.25;74.58;101055.84;5070700;28;20123;-83
2023/05/08 07:20:43;;;;;;;12.75;8.50;;;18.00;89.50;;;17.31;74.51;101054.06;5071181;28;20048;-83
2023/05/08 07:23:11;;;;;;;12.02;8.40;;;18.00;89.50;;;17.34;74.29;101065.19;5070569;28;20043;-83
2023/05/08 07:25:38;;;;;;;13.90;8.50;;;18.10;89.30;;;17.35;73.62;101072.22;5069395;28;20102;-83
2023/05/08 07:28:06;;;;;;;12.30;8.75;;;18.10;88.90;;;17.40;73.49;101072.31;5066191;28;20047;-83
2023/05/08 07:30:34;;;;;;;11.77;8.05;;;18.20;88.90;;;17.54;74.44;101072.00;5069420;28;20086;-83
2023/05/08 07:33:02;;;;;;;15.65;9.20;;;18.30;89.30;;;17.67;74.74;101075.22;5063074;28;20045;-83
2023/05/08 07:35:30;;;;;;;10.57;8.68;;;18.40;90.20;;;17.81;76.97;101080.31;5069900;28;20103;-85
2023/05/08 07:37:58;;;;;;;13.35;8.68;;;18.50;91.40;;;17.89;75.81;101077.22;5070679;28;20052;-82
2023/05/08 07:40:25;;;;;;;14.10;8.40;;;18.60;90.40;;;17.95;75.27;101076.25;5068078;28;20412;-83
2023/05/08 07:42:53;;;;;;;9.95;7.00;;;18.70;90.00;;;17.97;74.45;101076.81;5072021;28;20101;-82
2023/05/08 07:45:20;;;;;;;11.02;7.18;;;18.70;89.30;;;18.02;74.59;101075.03;5060663;28;20147;-84
2023/05/08 07:47:52;;;;;;;11.65;6.57;;;18.80;89.50;;;18.09;73.87;101082.94;5070076;28;20394;-84
2023/05/08 07:50:20;;;;;;;9.82;6.32;;;18.80;88.70;;;18.12;74.40;101081.66;5069544;28;20407;-84
2023/05/08 07:52:47;;;;;;;15.63;7.78;;;18.90;89.10;;;18.14;73.84;101085.72;5067892;28;20127;-84
2023/05/08 07:55:16;;;;;;;9.60;6.97;;;18.90;88.60;;;18.16;72.55;101090.91;5064545;28;20094;-83
2023/05/08 07:57:44;;;;;;;9.32;6.82;;;19.00;87.80;;;18.18;73.81;101097.66;5063960;28;20536;-83
2023/05/08 08:00:14;;;;;;;11.32;7.32;;;19.00;88.70;;;18.19;72.88;101090.38;5071068;28;20070;-84
2023/05/08 08:02:41;;;;;;;8.95;7.10;;;19.00;88.10;;;18.16;71.62;101096.31;5160445;22;20430;-83
2023/05/08 08:05:09;;;;;;;10.55;6.82;;;19.00;87.10;;;18.12;71.89;101089.75;5066255;28;20049;-84
2023/05/08 08:07:36;;;;;;;13.65;7.20;;;18.90;87.20;;;18.14;71.78;101093.00;5062444;28;20036;-84
2023/05/08 08:10:05;;;;;;;11.93;6.80;;;19.00;87.00;;;18.17;71.67;101095.22;5067890;28;20098;-81
2023/05/08 08:12:34;;;;;;;16.45;6.57;;;19.00;86.90;;;18.17;71.47;101096.03;5045695;28;20132;-87
2023/05/08 08:15:01;;;;;;;15.73;7.45;;;19.00;86.70;;;18.20;71.07;101094.72;5038281;28;20049;-82
2023/05/08 08:17:28;;;;;;;14.48;7.53;;;19.00;86.50;;;18.21;71.50;101082.88;5050549;28;20064;-82
2023/05/08 08:19:56;;;;;;;12.32;7.18;;;19.00;87.10;;;18.24;71.72;101093.16;5063482;28;20076;-81
2023/05/08 08:22:23;;;;;;;12.35;6.82;;;19.00;87.10;;;18.23;72.72;101084.25;5045879;28;20076;-81
2023/05/08 08:24:50;;;;;;;10.43;6.68;;;19.00;88.10;;;18.23;71.65;101081.53;5049014;28;20055;-81
2023/05/08 08:27:18;;;;;;;14.60;7.15;;;19.00;86.70;;;18.24;72.02;101090.47;5045557;28;20117;-81
2023/05/08 08:29:46;;;;;;;10.77;6.70;;;19.00;87.10;;;18.26;71.05;101093.75;5050326;28;20084;-81
2023/05/08 08:32:13;;;;;;;9.80;7.40;;;19.10;86.50;;;18.29;71.68;101090.53;5042855;28;20043;-81
2023/05/08 08:34:41;;;;;;;12.05;7.35;;;19.10;86.90;;;18.30;71.73;101088.66;5047637;28;20167;-81
2023/05/08 08:37:08;;;;;;;11.30;8.20;;;19.10;87.10;;;18.33;71.94;101082.78;5049716;28;20051;-81
2023/05/08 08:39:35;;;;;;;12.43;7.68;;;19.10;87.30;;;18.37;71.88;101073.94;5053991;28;20055;-81
2023/05/08 08:42:03;;;;;;;12.73;7.57;;;19.20;87.40;;;18.42;72.32;101079.41;5049347;28;20164;-81
2023/05/08 08:44:31;;;;;;;10.50;7.85;;;19.20;87.30;;;18.47;72.54;101079.47;5052426;28;20045;-81
2023/05/08 08:47:00;;;;;;;11.50;6.88;;;19.20;87.90;;;18.51;72.42;101077.09;5057589;28;20037;-81
2023/05/08 08:49:34;;;;;;;12.25;7.32;;;19.30;87.70;;;18.51;71.74;101074.41;5045885;28;20053;-81
2023/05/08 08:52:11;;;;;;;11.77;7.60;;;19.30;87.00;;;18.56;72.24;101081.75;5040623;28;20511;-81
2023/05/08 08:54:41;;;;;;;9.70;6.78;;;19.30;87.50;;;18.62;71.96;101078.06;5041714;28;20191;-83
2023/05/08 08:57:11;;;;;;;10.43;7.53;;;19.40;86.70;;;18.65;71.86;101074.88;5036485;28;20566;-82
2023/05/08 08:59:40;;;;;;;11.37;6.63;;;19.50;87.30;;;18.72;71.44;101075.50;5053086;28;20521;-79
2023/05/08 09:02:16;;;;;;;9.98;7.10;;;19.50;86.90;;;18.78;71.52;101075.31;5048673;28;20129;-83
2023/05/08 09:04:43;;;;;;;9.93;6.72;;;19.60;86.90;;;18.85;72.17;101075.16;5049120;28;20047;-82
2023/05/08 09:07:12;;;;;;;10.48;6.82;;;19.60;87.20;;;18.86;70.65;101074.06;5052367;28;20073;-82
2023/05/08 09:09:43;;;;;;;9.48;6.50;;;19.70;86.10;;;18.91;71.81;101076.84;5060766;28;20048;-81
2023/05/08 09:12:12;;;;;;;9.27;5.53;;;19.70;87.20;;;18.93;70.50;101071.19;5038589;28;20501;-81
2023/05/08 09:14:39;;;;;;;9.30;5.40;;;19.70;86.00;;;18.94;69.86;101070.94;5046373;28;20052;-82
2023/05/08 09:17:07;;;;;;;8.60;5.40;;;19.70;85.40;;;18.95;69.81;101069.88;5057512;28;20132;-82
2023/05/08 09:19:36;;;;;;;8.52;5.03;;;19.80;85.30;;;18.93;69.38;101077.41;5063249;28;20120;-81
2023/05/08 09:22:05;;;;;;;9.68;5.63;;;19.80;85.00;;;18.94;68.97;101081.75;5053093;28;20147;-82
2023/05/08 09:24:55;;;;;;;7.55;5.47;;;19.80;84.50;;;18.95;69.43;101079.88;5051643;28;20521;-81
2023/05/08 09:27:24;;;;;;;11.00;5.88;;;19.80;84.90;;;18.96;69.90;101090.41;5055314;28;20048;-80
2023/05/08 09:30:01;;;;;;;9.30;5.72;;;19.80;85.00;;;18.92;69.06;101094.69;5057319;28;20512;-81
2023/05/08 09:32:29;;;;;;;26.42;6.55;;;19.80;84.70;;;18.93;69.40;101088.22;5050400;28;20037;-81
2023/05/08 09:34:58;;;;;;;7.35;4.70;;;19.80;84.70;;;18.90;67.89;101094.13;5060158;28;20071;-81
2023/05/08 09:37:27;;;;;;;6.32;4.25;;;19.80;82.70;;;18.85;66.47;101096.78;5065270;28;20048;-81
2023/05/08 09:39:54;;;;;;;7.80;4.57;;;19.70;82.00;;;18.81;66.75;101097.53;5054665;28;20045;-81
2023/05/08 09:42:24;;;;;;;7.88;4.32;;;19.60;82.50;;;18.77;66.17;101097.19;5036788;28;20580;-81
2023/05/08 09:44:53;;;;;;;6.57;4.45;;;19.60;82.10;;;18.71;66.02;101095.50;5054247;28;20125;-81
2023/05/08 09:47:22;;;;;;;14.15;4.88;;;19.60;82.00;;;18.66;66.45;101098.09;5039716;28;20796;-83
2023/05/08 09:50:02;;;;;;;9.98;4.57;;;19.50;82.00;;;18.64;67.14;101097.53;5068721;28;20044;-80
2023/05/08 09:52:30;;;;;;;7.00;5.07;;;19.50;82.90;;;18.66;66.46;101106.22;5044059;28;20047;-80
2023/05/08 09:54:59;;;;;;;11.30;5.63;;;19.50;82.30;;;18.65;67.26;101104.59;5048771;28;20118;-85
2023/05/08 09:57:26;;;;;;;9.55;5.70;;;19.50;83.10;;;18.66;67.35;101103.50;5061535;28;20055;-85
2023/05/08 10:00:04;;;;;;;7.95;5.60;;;19.50;83.30;;;18.63;66.83;101098.59;5053736;28;20047;-83
2023/05/08 10:02:34;;;;;;;7.38;5.50;;;19.50;82.50;;;18.63;67.60;101099.41;5048213;28;20045;-87
2023/05/08 10:05:04;;;;;;;8.20;5.57;;;19.50;83.40;;;18.61;67.49;101095.34;5045765;28;20068;-86
2023/05/08 10:07:34;;;;;;;9.30;5.88;;;19.40;83.30;;;18.58;67.25;101101.22;5047878;28;20132;-85
2023/05/08 10:10:03;;;;;;;9.00;6.43;;;19.40;82.90;;;18.59;68.09;101092.03;5046886;28;20047;-86
2023/05/08 10:12:31;;;;;;;10.15;6.75;;;19.40;83.50;;;18.60;67.73;101096.41;5061227;28;20076;-82
2023/05/08 10:14:59;;;;;;;8.77;6.13;;;19.40;83.60;;;18.60;67.91;101086.41;5065022;28;20051;-83